Time;durP1;ratioP1;P1;durP2;ratioP2;P2;SDS_P1;SDS_P2;PMS_P1;PMS_P2;Temp;Humidity;BMP_temperature;BMP_pressure;BME280_temperature;BME280_humidity;BME280_pressure;Samples;Min_cycle;Max_cycle;Signal;HPM_P1;HPM_P2
2021/10/13 00:00:54;;;;;;;3.93;1.27;;;;;;;;;;5007163;28;20189;-74
2021/10/13 00:03:19;;;;;;;4.10;1.27;;;;;;;;;;5004634;28;20208;-74
2021/10/13 00:05:45;;;;;;;2.90;1.47;;;;;;;;;;5004400;28;21165;-74
2021/10/13 00:08:10;;;;;;;5.63;1.43;;;;;;;;;;5001842;28;20183;-74
2021/10/13 00:10:35;;;;;;;3.33;1.10;;;;;;;;;;5006491;28;20169;-74
2021/10/13 00:13:00;;;;;;;2.40;1.00;;;;;;;;;;5003254;28;20202;-74
2021/10/13 00:15:26;;;;;;;2.47;1.23;;;;;;;;;;5001856;28;20754;-74
2021/10/13 00:17:51;;;;;;;8.13;1.57;;;;;;;;;;5001015;28;21663;-74
2021/10/13 00:20:16;;;;;;;4.70;1.23;;;;;;;;;;4999754;28;21197;-74
2021/10/13 00:22:41;;;;;;;2.60;0.93;;;;;;;;;;5006091;28;20201;-74
2021/10/13 00:25:07;;;;;;;1.60;1.00;;;;;;;;;;5006677;28;20173;-74
2021/10/13 00:27:32;;;;;;;2.87;0.90;;;;;;;;;;5007485;28;20185;-74
2021/10/13 00:29:58;;;;;;;1.87;0.90;;;;;;;;;;5004947;28;20209;-74
2021/10/13 00:32:23;;;;;;;1.77;0.90;;;;;;;;;;4997389;28;20213;-74
2021/10/13 00:34:48;;;;;;;4.53;1.13;;;;;;;;;;5001353;28;20628;-74
2021/10/13 00:37:13;;;;;;;3.03;1.20;;;;;;;;;;5001453;28;20189;-74
2021/10/13 00:39:39;;;;;;;2.17;1.00;;;;;;;;;;5007491;28;20173;-74
2021/10/13 00:42:04;;;;;;;2.93;1.03;;;;;;;;;;5001627;28;20180;-74
2021/10/13 00:44:29;;;;;;;3.30;1.23;;;;;;;;;;5000577;28;21222;-75
2021/10/13 00:46:54;;;;;;;3.07;0.90;;;;;;;;;;5000554;28;20235;-75
2021/10/13 00:49:20;;;;;;;3.00;0.93;;;;;;;;;;5006681;28;20315;-74
2021/10/13 00:51:45;;;;;;;2.60;1.10;;;;;;;;;;5005328;28;20213;-74
2021/10/13 00:54:10;;;;;;;2.00;0.80;;;;;;;;;;5004090;28;20541;-74
2021/10/13 00:56:35;;;;;;;3.03;1.10;;;;;;;;;;5005050;28;20172;-74
2021/10/13 00:59:01;;;;;;;1.77;0.93;;;;;;;;;;5001853;28;20197;-74
2021/10/13 01:01:26;;;;;;;4.23;0.97;;;;;;;;;;5003705;28;20964;-74
2021/10/13 01:04:14;;;;;;;3.37;1.27;;;;;;;;;;5002530;28;20301;-74
2021/10/13 01:06:53;;;;;;;2.57;0.90;;;;;;;;;;5001442;28;20190;-74
2021/10/13 01:09:21;;;;;;;3.20;1.10;;;;;;;;;;4999977;28;20812;-74
2021/10/13 01:11:52;;;;;;;2.10;0.73;;;;;;;;;;5002429;28;20433;-74
2021/10/13 01:14:32;;;;;;;3.00;1.40;;;;;;;;;;5002953;28;20461;-74
2021/10/13 01:17:02;;;;;;;3.70;0.93;;;;;;;;;;5002721;28;20451;-74
2021/10/13 01:19:46;;;;;;;2.00;0.80;;;;;;;;;;5002338;28;20408;-74
2021/10/13 01:22:14;;;;;;;2.00;0.80;;;;;;;;;;5003784;28;20788;-74
2021/10/13 01:24:42;;;;;;;2.20;0.87;;;;;;;;;;5001540;28;20429;-73
2021/10/13 01:27:26;;;;;;;3.30;1.00;;;;;;;;;;5002326;28;21013;-73
2021/10/13 01:29:51;;;;;;;2.17;1.00;;;;;;;;;;5002160;28;20428;-74
2021/10/13 01:32:20;;;;;;;2.80;1.30;;;;;;;;;;5003267;28;20961;-74
2021/10/13 01:34:46;;;;;;;1.60;0.90;;;;;;;;;;5000550;28;20198;-74
2021/10/13 01:37:20;;;;;;;3.43;1.00;;;;;;;;;;5001509;28;20453;-75
2021/10/13 01:39:48;;;;;;;5.70;1.20;;;;;;;;;;4998580;28;20431;-74
2021/10/13 01:42:15;;;;;;;2.40;1.00;;;;;;;;;;5002378;28;20505;-75
2021/10/13 01:44:41;;;;;;;1.33;0.87;;;;;;;;;;5005092;28;20420;-75
2021/10/13 01:47:07;;;;;;;2.83;1.23;;;;;;;;;;5005412;28;20494;-75
2021/10/13 01:49:34;;;;;;;1.83;1.00;;;;;;;;;;5003293;28;20580;-74
2021/10/13 01:51:59;;;;;;;1.10;0.80;;;;;;;;;;5001193;28;20431;-74
2021/10/13 01:54:25;;;;;;;1.20;0.80;;;;;;;;;;5001086;28;20456;-74
2021/10/13 01:56:52;;;;;;;2.43;0.73;;;;;;;;;;5006774;28;20648;-74
2021/10/13 01:59:20;;;;;;;6.33;1.10;;;;;;;;;;5004085;28;20205;-74
2021/10/13 02:01:46;;;;;;;2.47;1.07;;;;;;;;;;5003046;28;20507;-74
2021/10/13 02:04:13;;;;;;;3.87;1.27;;;;;;;;;;5002390;28;20607;-74
2021/10/13 02:06:41;;;;;;;2.30;1.37;;;;;;;;;;5003875;28;20724;-74
2021/10/13 02:09:07;;;;;;;3.10;1.40;;;;;;;;;;5002817;28;20440;-74
2021/10/13 02:11:33;;;;;;;4.47;1.43;;;;;;;;;;5003162;28;20468;-74
2021/10/13 02:14:09;;;;;;;2.77;0.90;;;;;;;;;;5003288;28;20511;-74
2021/10/13 02:16:34;;;;;;;1.37;0.90;;;;;;;;;;5004610;28;20306;-74
2021/10/13 02:19:01;;;;;;;3.27;1.00;;;;;;;;;;5004264;28;20535;-74
2021/10/13 02:21:26;;;;;;;2.57;0.90;;;;;;;;;;5003637;28;20180;-74
2021/10/13 02:23:58;;;;;;;2.60;1.10;;;;;;;;;;5000435;28;20459;-74
2021/10/13 02:26:28;;;;;;;1.57;0.90;;;;;;;;;;5004092;28;20169;-74
2021/10/13 02:28:56;;;;;;;1.57;1.00;;;;;;;;;;5000595;28;21169;-74
2021/10/13 02:31:21;;;;;;;3.23;0.80;;;;;;;;;;5004699;28;20460;-74
2021/10/13 02:33:46;;;;;;;1.50;0.80;;;;;;;;;;5003831;28;21222;-74
2021/10/13 02:36:11;;;;;;;1.53;1.00;;;;;;;;;;5001981;28;20197;-74
2021/10/13 02:38:37;;;;;;;1.80;0.80;;;;;;;;;;4999200;28;20180;-74
2021/10/13 02:41:02;;;;;;;3.63;1.10;;;;;;;;;;5002679;28;20178;-74
2021/10/13 02:43:27;;;;;;;7.50;1.00;;;;;;;;;;5001480;28;20189;-74
2021/10/13 02:45:58;;;;;;;1.80;0.90;;;;;;;;;;5000126;28;21019;-74
2021/10/13 02:48:25;;;;;;;3.47;1.47;;;;;;;;;;5002250;28;20363;-74
2021/10/13 02:50:59;;;;;;;4.00;1.03;;;;;;;;;;5002980;28;20416;-73
2021/10/13 02:53:33;;;;;;;3.40;1.20;;;;;;;;;;5001473;28;20447;-74
2021/10/13 02:56:01;;;;;;;2.50;1.10;;;;;;;;;;5002491;28;20958;-74
2021/10/13 02:58:38;;;;;;;3.43;0.87;;;;;;;;;;5001317;28;20928;-74
2021/10/13 03:01:03;;;;;;;2.77;0.83;;;;;;;;;;4997691;28;20454;-74
2021/10/13 03:03:49;;;;;;;3.30;0.87;;;;;;;;;;5003806;28;20488;-74
2021/10/13 03:06:15;;;;;;;1.50;0.83;;;;;;;;;;4999048;28;20268;-74
2021/10/13 03:08:41;;;;;;;7.77;1.00;;;;;;;;;;5012789;28;21145;-74
2021/10/13 03:11:09;;;;;;;1.40;0.80;;;;;;;;;;4997267;28;20442;-74
2021/10/13 03:13:37;;;;;;;4.23;1.10;;;;;;;;;;5001966;28;20535;-74
2021/10/13 03:16:03;;;;;;;1.67;0.80;;;;;;;;;;4998456;28;20529;-76
2021/10/13 03:18:29;;;;;;;3.57;1.00;;;;;;;;;;5003133;28;20509;-75
2021/10/13 03:20:55;;;;;;;2.57;0.90;;;;;;;;;;5001938;28;20427;-76
2021/10/13 03:23:21;;;;;;;4.77;0.90;;;;;;;;;;5001893;28;20459;-73
2021/10/13 03:25:49;;;;;;;1.53;1.00;;;;;;;;;;5001015;28;20186;-73
2021/10/13 03:28:14;;;;;;;1.50;0.93;;;;;;;;;;5005189;28;20443;-73
2021/10/13 03:30:41;;;;;;;2.20;0.83;;;;;;;;;;5002126;28;20427;-72
2021/10/13 03:33:07;;;;;;;2.60;1.00;;;;;;;;;;5004353;28;20681;-73
2021/10/13 03:35:32;;;;;;;1.63;0.83;;;;;;;;;;5002230;28;20503;-73
2021/10/13 03:38:00;;;;;;;3.17;1.10;;;;;;;;;;5002692;28;20259;-73
2021/10/13 03:40:25;;;;;;;2.30;0.97;;;;;;;;;;5004281;28;20177;-73
2021/10/13 03:42:51;;;;;;;3.30;0.80;;;;;;;;;;5000624;28;20511;-73
2021/10/13 03:45:17;;;;;;;1.90;0.77;;;;;;;;;;5001859;28;20189;-73
2021/10/13 03:47:42;;;;;;;2.80;1.10;;;;;;;;;;5002286;28;20662;-73
2021/10/13 03:50:09;;;;;;;2.63;0.90;;;;;;;;;;5004411;28;20486;-73
2021/10/13 03:52:34;;;;;;;2.83;1.20;;;;;;;;;;4998235;28;20901;-73
2021/10/13 03:54:59;;;;;;;3.50;1.00;;;;;;;;;;5002174;28;20527;-73
2021/10/13 03:57:24;;;;;;;1.70;0.97;;;;;;;;;;5001122;28;20178;-73
2021/10/13 03:59:50;;;;;;;6.80;0.90;;;;;;;;;;4996778;28;20210;-74
2021/10/13 04:02:15;;;;;;;3.50;1.20;;;;;;;;;;5002250;28;20209;-73
2021/10/13 04:04:41;;;;;;;3.10;0.90;;;;;;;;;;5001681;28;20181;-73
2021/10/13 04:07:06;;;;;;;2.00;0.80;;;;;;;;;;5004064;28;20173;-73
2021/10/13 04:09:31;;;;;;;5.37;1.07;;;;;;;;;;5003141;28;20185;-73
2021/10/13 04:11:56;;;;;;;0.90;0.70;;;;;;;;;;5004676;28;20641;-74
2021/10/13 04:14:22;;;;;;;2.70;1.30;;;;;;;;;;4999608;28;20242;-74
2021/10/13 04:16:47;;;;;;;2.43;0.90;;;;;;;;;;5001072;28;20189;-74
2021/10/13 04:19:12;;;;;;;3.77;1.43;;;;;;;;;;5002123;28;20228;-74
2021/10/13 04:21:37;;;;;;;6.50;2.27;;;;;;;;;;5003211;28;21494;-74
2021/10/13 04:24:03;;;;;;;4.13;1.20;;;;;;;;;;5005155;28;20201;-74
2021/10/13 04:26:28;;;;;;;3.60;1.00;;;;;;;;;;5005606;28;20713;-74
2021/10/13 04:28:53;;;;;;;2.80;1.10;;;;;;;;;;5004082;28;20181;-74
2021/10/13 04:31:18;;;;;;;5.07;1.00;;;;;;;;;;5003680;28;20178;-74
2021/10/13 04:33:44;;;;;;;2.83;1.23;;;;;;;;;;5004581;28;20247;-74
2021/10/13 04:36:11;;;;;;;5.33;1.20;;;;;;;;;;5005102;28;20776;-74
2021/10/13 04:38:36;;;;;;;2.63;1.17;;;;;;;;;;5005233;28;20597;-74
2021/10/13 04:41:01;;;;;;;2.97;1.03;;;;;;;;;;5003169;28;20408;-74
2021/10/13 04:43:27;;;;;;;2.07;1.07;;;;;;;;;;5001886;28;20193;-74
2021/10/13 04:45:52;;;;;;;3.37;1.10;;;;;;;;;;5005287;28;20209;-74
2021/10/13 04:48:17;;;;;;;1.70;1.00;;;;;;;;;;5001010;28;20606;-74
2021/10/13 04:50:42;;;;;;;4.83;1.07;;;;;;;;;;5003775;28;20197;-74
2021/10/13 04:53:08;;;;;;;5.60;0.97;;;;;;;;;;5004154;28;20200;-73
2021/10/13 04:55:33;;;;;;;2.90;1.20;;;;;;;;;;5005078;28;20197;-74
2021/10/13 04:57:58;;;;;;;4.43;1.07;;;;;;;;;;5001831;28;20185;-73
2021/10/13 05:00:23;;;;;;;3.43;1.07;;;;;;;;;;5003164;28;20250;-74
2021/10/13 05:02:49;;;;;;;1.40;0.90;;;;;;;;;;4997211;28;20217;-74
2021/10/13 05:05:14;;;;;;;7.00;1.03;;;;;;;;;;5003101;28;20654;-74
2021/10/13 05:07:42;;;;;;;6.80;1.50;;;;;;;;;;5000712;28;20185;-74
2021/10/13 05:10:07;;;;;;;3.37;1.10;;;;;;;;;;4998240;28;20193;-73
2021/10/13 05:12:32;;;;;;;3.43;1.10;;;;;;;;;;4999775;28;20457;-76
2021/10/13 05:14:58;;;;;;;6.17;1.40;;;;;;;;;;5000443;28;20260;-75
2021/10/13 05:17:23;;;;;;;8.00;1.50;;;;;;;;;;4996560;28;23139;-76
2021/10/13 05:19:48;;;;;;;4.47;1.30;;;;;;;;;;5001850;28;20651;-75
2021/10/13 05:22:13;;;;;;;2.77;1.07;;;;;;;;;;5004843;28;20555;-75
2021/10/13 05:24:39;;;;;;;4.00;1.30;;;;;;;;;;5004187;28;20189;-75
2021/10/13 05:27:04;;;;;;;3.13;1.10;;;;;;;;;;4999804;28;20193;-75
2021/10/13 05:29:29;;;;;;;3.47;1.20;;;;;;;;;;5005013;28;20263;-75
2021/10/13 05:31:55;;;;;;;5.20;1.40;;;;;;;;;;5004898;28;20658;-75
2021/10/13 05:34:20;;;;;;;3.43;1.10;;;;;;;;;;4995289;28;22931;-74
2021/10/13 05:36:48;;;;;;;1.83;1.03;;;;;;;;;;4987722;28;20235;-74
2021/10/13 05:39:13;;;;;;;1.67;1.13;;;;;;;;;;4987174;28;20689;-75
2021/10/13 05:41:39;;;;;;;1.90;1.27;;;;;;;;;;4997983;28;20433;-75
2021/10/13 05:44:04;;;;;;;3.27;1.30;;;;;;;;;;5006031;28;20193;-74
2021/10/13 05:46:32;;;;;;;2.17;1.07;;;;;;;;;;5003158;28;20272;-74
2021/10/13 05:48:57;;;;;;;4.23;1.27;;;;;;;;;;5003284;28;20177;-74
2021/10/13 05:51:22;;;;;;;2.30;1.33;;;;;;;;;;4999610;28;20425;-74
2021/10/13 05:53:47;;;;;;;5.00;1.67;;;;;;;;;;5001434;28;20202;-75
2021/10/13 05:56:13;;;;;;;3.30;1.13;;;;;;;;;;5001043;28;20181;-75
2021/10/13 05:58:38;;;;;;;3.57;1.13;;;;;;;;;;5004348;28;20277;-74
2021/10/13 06:01:04;;;;;;;2.10;1.00;;;;;;;;;;5000555;28;20211;-75
2021/10/13 06:03:29;;;;;;;2.90;1.40;;;;;;;;;;5004589;28;20463;-74
2021/10/13 06:05:55;;;;;;;2.07;1.00;;;;;;;;;;5004970;28;20181;-74
2021/10/13 06:08:21;;;;;;;2.10;0.93;;;;;;;;;;5004872;28;20268;-75
2021/10/13 06:10:46;;;;;;;3.77;1.30;;;;;;;;;;5003056;28;20189;-75
2021/10/13 06:13:12;;;;;;;3.27;1.23;;;;;;;;;;5001522;28;20532;-75
2021/10/13 06:15:37;;;;;;;8.53;1.50;;;;;;;;;;5001743;28;20197;-75
2021/10/13 06:18:04;;;;;;;2.80;1.27;;;;;;;;;;5005605;28;20280;-75
2021/10/13 06:20:29;;;;;;;3.10;0.97;;;;;;;;;;5020368;28;20199;-75
2021/10/13 06:22:54;;;;;;;3.17;0.90;;;;;;;;;;4999898;28;20456;-75
2021/10/13 06:25:20;;;;;;;3.90;1.00;;;;;;;;;;5002290;28;20418;-75
2021/10/13 06:27:46;;;;;;;3.63;1.20;;;;;;;;;;5002026;28;20605;-75
2021/10/13 06:30:11;;;;;;;1.40;1.00;;;;;;;;;;5015118;28;20189;-75
2021/10/13 06:32:36;;;;;;;2.40;1.13;;;;;;;;;;5002868;28;20451;-75
2021/10/13 06:35:02;;;;;;;2.57;1.00;;;;;;;;;;5001394;28;20242;-75
2021/10/13 06:37:27;;;;;;;2.00;0.90;;;;;;;;;;5000839;28;20204;-75
2021/10/13 06:39:52;;;;;;;3.60;1.47;;;;;;;;;;5001976;28;20184;-76
2021/10/13 06:42:17;;;;;;;2.60;1.30;;;;;;;;;;5004875;28;20302;-75
2021/10/13 06:44:43;;;;;;;2.23;1.60;;;;;;;;;;5003590;28;20665;-75
2021/10/13 06:47:08;;;;;;;1.60;1.40;;;;;;;;;;5001000;28;20272;-76
2021/10/13 06:49:33;;;;;;;4.67;1.57;;;;;;;;;;5001293;28;20188;-75
2021/10/13 06:51:59;;;;;;;1.80;1.20;;;;;;;;;;5000408;28;20737;-77
2021/10/13 06:54:24;;;;;;;3.07;1.57;;;;;;;;;;5004281;28;20198;-75
2021/10/13 06:56:49;;;;;;;1.93;1.00;;;;;;;;;;4997730;28;20181;-76
2021/10/13 06:59:14;;;;;;;3.57;1.30;;;;;;;;;;5003432;28;20173;-75
2021/10/13 07:01:39;;;;;;;2.33;1.30;;;;;;;;;;5002573;28;20181;-75
2021/10/13 07:04:05;;;;;;;4.10;0.93;;;;;;;;;;4999593;28;20623;-75
2021/10/13 07:06:30;;;;;;;2.77;1.20;;;;;;;;;;4994024;28;20266;-75
2021/10/13 07:08:55;;;;;;;2.70;1.40;;;;;;;;;;4994492;28;20192;-75
2021/10/13 07:11:23;;;;;;;4.57;1.50;;;;;;;;;;4999297;28;20195;-75
2021/10/13 07:13:48;;;;;;;2.33;1.13;;;;;;;;;;5000329;28;20216;-75
2021/10/13 07:16:13;;;;;;;4.00;1.40;;;;;;;;;;5000073;28;20449;-75
2021/10/13 07:18:38;;;;;;;2.17;1.20;;;;;;;;;;4996209;28;20275;-75
2021/10/13 07:21:04;;;;;;;2.90;1.10;;;;;;;;;;5001930;28;20180;-75
2021/10/13 07:23:29;;;;;;;4.10;2.33;;;;;;;;;;5002423;28;20585;-75
2021/10/13 07:25:55;;;;;;;4.73;1.50;;;;;;;;;;5004362;28;20204;-75
2021/10/13 07:28:20;;;;;;;4.03;1.50;;;;;;;;;;5001864;28;20196;-75
2021/10/13 07:30:45;;;;;;;3.10;1.60;;;;;;;;;;5000609;28;20181;-75
2021/10/13 07:33:11;;;;;;;5.03;2.23;;;;;;;;;;5001748;28;20202;-75
2021/10/13 07:35:36;;;;;;;6.70;2.13;;;;;;;;;;4999323;28;20610;-75
2021/10/13 07:38:02;;;;;;;6.10;3.77;;;;;;;;;;4998103;28;20181;-75
2021/10/13 07:40:27;;;;;;;5.73;2.97;;;;;;;;;;4999253;28;20185;-75
2021/10/13 07:42:53;;;;;;;7.47;2.67;;;;;;;;;;5001832;28;20814;-76
2021/10/13 07:45:19;;;;;;;4.93;1.90;;;;;;;;;;5002278;28;20270;-76
2021/10/13 07:47:44;;;;;;;3.47;1.90;;;;;;;;;;5000778;28;20497;-76
2021/10/13 07:50:10;;;;;;;5.70;2.10;;;;;;;;;;5000044;28;20196;-75
2021/10/13 07:52:35;;;;;;;3.43;1.50;;;;;;;;;;5002020;28;20317;-75
2021/10/13 07:55:00;;;;;;;3.67;1.27;;;;;;;;;;5003957;28;20208;-76
2021/10/13 07:57:25;;;;;;;3.23;1.37;;;;;;;;;;5004903;28;20178;-76
2021/10/13 07:59:51;;;;;;;5.03;0.97;;;;;;;;;;5007637;28;20563;-75
2021/10/13 08:02:16;;;;;;;3.80;0.80;;;;;;;;;;5004393;28;20193;-75
2021/10/13 08:04:42;;;;;;;4.40;0.90;;;;;;;;;;5003641;28;20215;-75
2021/10/13 08:07:07;;;;;;;6.03;1.03;;;;;;;;;;5004397;28;20193;-75
2021/10/13 08:09:33;;;;;;;1.73;0.83;;;;;;;;;;5004874;28;20618;-75
2021/10/13 08:11:58;;;;;;;1.37;0.60;;;;;;;;;;5005510;28;20190;-75
2021/10/13 08:14:23;;;;;;;2.20;0.77;;;;;;;;;;5004381;28;20204;-75
2021/10/13 08:16:49;;;;;;;1.30;0.77;;;;;;;;;;5004700;28;20175;-76
2021/10/13 08:19:14;;;;;;;3.90;0.50;;;;;;;;;;5002353;28;20189;-75
2021/10/13 08:21:39;;;;;;;2.80;0.97;;;;;;;;;;5003767;28;20260;-75
2021/10/13 08:24:04;;;;;;;2.33;0.80;;;;;;;;;;5006164;28;20243;-75
2021/10/13 08:26:30;;;;;;;1.57;0.80;;;;;;;;;;5004615;28;20606;-75
2021/10/13 08:28:55;;;;;;;2.10;0.97;;;;;;;;;;5003884;28;20265;-75
2021/10/13 08:31:21;;;;;;;1.80;1.17;;;;;;;;;;5002417;28;20526;-76
2021/10/13 08:33:47;;;;;;;1.17;0.97;;;;;;;;;;5002569;28;20729;-75
2021/10/13 08:36:12;;;;;;;3.40;0.90;;;;;;;;;;5000839;28;20228;-75
2021/10/13 08:38:38;;;;;;;1.83;0.70;;;;;;;;;;5001469;28;20939;-75
2021/10/13 08:41:04;;;;;;;1.70;0.60;;;;;;;;;;4999457;28;20291;-76
2021/10/13 08:43:29;;;;;;;1.27;0.60;;;;;;;;;;5001181;28;20872;-76
2021/10/13 08:45:54;;;;;;;0.80;0.53;;;;;;;;;;5005828;28;20982;-75
2021/10/13 08:48:19;;;;;;;1.53;0.43;;;;;;;;;;5003086;28;20191;-75
2021/10/13 08:50:49;;;;;;;0.93;0.43;;;;;;;;;;5007386;28;20184;-75
2021/10/13 08:53:16;;;;;;;2.53;0.70;;;;;;;;;;5002765;28;20207;-75
2021/10/13 08:55:43;;;;;;;2.10;0.70;;;;;;;;;;5002871;28;20610;-75
2021/10/13 08:58:12;;;;;;;1.00;0.60;;;;;;;;;;5005414;28;20526;-76
2021/10/13 09:00:39;;;;;;;1.03;0.50;;;;;;;;;;5005024;28;20594;-75
2021/10/13 09:03:04;;;;;;;2.17;0.63;;;;;;;;;;4999865;28;20963;-75
2021/10/13 09:05:29;;;;;;;1.37;0.60;;;;;;;;;;5002663;28;20456;-75
2021/10/13 09:07:56;;;;;;;3.03;0.70;;;;;;;;;;4995535;28;20269;-75
2021/10/13 09:10:37;;;;;;;2.93;0.70;;;;;;;;;;5002097;28;20185;-75
2021/10/13 09:13:03;;;;;;;1.87;0.70;;;;;;;;;;5005003;28;20520;-75
2021/10/13 09:15:30;;;;;;;2.23;0.80;;;;;;;;;;5005025;28;20470;-75
2021/10/13 09:17:55;;;;;;;3.23;0.73;;;;;;;;;;5002458;28;21163;-76
2021/10/13 09:20:22;;;;;;;0.97;0.70;;;;;;;;;;5001516;28;20448;-75
2021/10/13 09:22:57;;;;;;;3.37;0.63;;;;;;;;;;5003421;28;20200;-75
2021/10/13 09:25:22;;;;;;;3.17;1.00;;;;;;;;;;5001802;28;20489;-75
2021/10/13 09:27:47;;;;;;;1.40;0.60;;;;;;;;;;4998730;28;20431;-75
2021/10/13 09:30:12;;;;;;;2.30;0.60;;;;;;;;;;4999413;28;20672;-75
2021/10/13 09:32:44;;;;;;;3.63;0.90;;;;;;;;;;5005979;28;20754;-75
2021/10/13 09:35:10;;;;;;;0.60;0.53;;;;;;;;;;5001388;28;20263;-76
2021/10/13 09:37:44;;;;;;;2.00;0.93;;;;;;;;;;5000955;28;20500;-76
2021/10/13 09:40:10;;;;;;;0.63;0.60;;;;;;;;;;5003010;28;20541;-75
2021/10/13 09:42:40;;;;;;;2.93;0.93;;;;;;;;;;5001318;28;20461;-75
2021/10/13 09:45:05;;;;;;;1.47;0.80;;;;;;;;;;5002400;28;20189;-75
2021/10/13 09:47:35;;;;;;;1.90;0.90;;;;;;;;;;5006377;28;20416;-76
2021/10/13 09:50:05;;;;;;;1.80;0.80;;;;;;;;;;5006276;28;20181;-76
2021/10/13 09:52:31;;;;;;;2.70;0.70;;;;;;;;;;5003291;28;20584;-75
2021/10/13 09:54:58;;;;;;;4.47;0.73;;;;;;;;;;5000186;28;20543;-76
2021/10/13 09:57:26;;;;;;;1.23;0.80;;;;;;;;;;5000329;28;20181;-76
2021/10/13 09:59:58;;;;;;;2.57;0.87;;;;;;;;;;5000122;28;20445;-76
2021/10/13 10:02:24;;;;;;;2.00;0.80;;;;;;;;;;4999088;28;20431;-75
2021/10/13 10:04:51;;;;;;;2.80;1.33;;;;;;;;;;4999593;28;20490;-75
2021/10/13 10:07:18;;;;;;;2.40;0.97;;;;;;;;;;5000746;28;20420;-75
2021/10/13 10:10:03;;;;;;;2.90;0.80;;;;;;;;;;4999291;28;20416;-75
2021/10/13 10:12:29;;;;;;;4.77;0.80;;;;;;;;;;4998812;28;20523;-75
2021/10/13 10:14:54;;;;;;;3.13;0.83;;;;;;;;;;5003066;28;21184;-75
2021/10/13 10:17:39;;;;;;;1.27;0.70;;;;;;;;;;5004116;28;20180;-75
2021/10/13 10:20:04;;;;;;;2.70;0.80;;;;;;;;;;5001123;28;20553;-76
2021/10/13 10:22:43;;;;;;;3.37;1.03;;;;;;;;;;4999963;28;20460;-75
2021/10/13 10:25:09;;;;;;;3.60;0.90;;;;;;;;;;5001735;28;20189;-75
2021/10/13 10:27:34;;;;;;;3.17;1.03;;;;;;;;;;5001614;28;20436;-75
2021/10/13 10:30:09;;;;;;;8.97;1.20;;;;;;;;;;5001506;28;20182;-76
2021/10/13 10:32:35;;;;;;;3.03;1.00;;;;;;;;;;4997557;28;20235;-75
2021/10/13 10:35:03;;;;;;;3.80;1.07;;;;;;;;;;4998815;28;21292;-75
2021/10/13 10:37:38;;;;;;;1.20;0.70;;;;;;;;;;4993882;28;20977;-76
2021/10/13 10:40:05;;;;;;;3.13;1.03;;;;;;;;;;5000580;28;20446;-76
2021/10/13 10:42:49;;;;;;;5.83;1.00;;;;;;;;;;5003260;28;20957;-75
2021/10/13 10:45:16;;;;;;;2.37;0.97;;;;;;;;;;5003863;28;20470;-74
2021/10/13 10:47:53;;;;;;;3.20;1.40;;;;;;;;;;5003003;28;20443;-74
2021/10/13 10:50:28;;;;;;;2.63;1.37;;;;;;;;;;5002921;28;20463;-74
2021/10/13 10:53:12;;;;;;;4.30;1.47;;;;;;;;;;4994510;28;20458;-73
2021/10/13 10:55:39;;;;;;;1.20;0.90;;;;;;;;;;4999983;28;20471;-74
2021/10/13 10:58:14;;;;;;;3.10;1.23;;;;;;;;;;5000401;28;20439;-73
2021/10/13 11:00:39;;;;;;;2.10;0.90;;;;;;;;;;4994772;28;20427;-75
2021/10/13 11:03:25;;;;;;;5.30;1.47;;;;;;;;;;4997854;28;21221;-74
2021/10/13 11:05:53;;;;;;;1.83;0.97;;;;;;;;;;4997000;28;20184;-74
2021/10/13 11:08:18;;;;;;;5.20;1.10;;;;;;;;;;4998459;28;20417;-74
2021/10/13 11:10:43;;;;;;;8.43;1.30;;;;;;;;;;5005189;28;21009;-74
2021/10/13 11:13:09;;;;;;;4.20;1.07;;;;;;;;;;5001606;28;20827;-73
2021/10/13 11:15:36;;;;;;;5.70;0.93;;;;;;;;;;5001766;28;20202;-73
2021/10/13 11:18:15;;;;;;;3.37;0.80;;;;;;;;;;5003217;28;20169;-74
2021/10/13 11:20:41;;;;;;;2.07;0.80;;;;;;;;;;5007442;28;20500;-74
2021/10/13 11:23:07;;;;;;;1.97;1.00;;;;;;;;;;5006708;28;20518;-74
2021/10/13 11:25:33;;;;;;;5.13;1.37;;;;;;;;;;5006414;28;20173;-73
2021/10/13 11:27:58;;;;;;;3.43;0.90;;;;;;;;;;5003212;28;20271;-73
2021/10/13 11:30:23;;;;;;;3.30;1.00;;;;;;;;;;5002629;28;20932;-74
2021/10/13 11:32:49;;;;;;;5.90;1.20;;;;;;;;;;5002555;28;20240;-74
2021/10/13 11:35:17;;;;;;;6.23;1.10;;;;;;;;;;5017040;28;20197;-74
2021/10/13 11:37:46;;;;;;;4.33;0.80;;;;;;;;;;5002344;28;20185;-74
2021/10/13 11:40:15;;;;;;;4.43;0.90;;;;;;;;;;5008709;28;20887;-74
2021/10/13 11:42:40;;;;;;;1.70;0.83;;;;;;;;;;5003045;28;20997;-74
2021/10/13 11:45:11;;;;;;;4.20;1.73;;;;;;;;;;5004456;28;20436;-74
2021/10/13 11:47:37;;;;;;;5.47;1.20;;;;;;;;;;5004302;28;20257;-74
2021/10/13 11:50:09;;;;;;;1.80;1.20;;;;;;;;;;5001858;28;20920;-74
2021/10/13 11:52:38;;;;;;;2.37;1.00;;;;;;;;;;5002958;28;20197;-74
2021/10/13 11:55:05;;;;;;;6.93;1.20;;;;;;;;;;5002519;28;20494;-74
2021/10/13 11:57:31;;;;;;;5.10;1.20;;;;;;;;;;5005639;28;20485;-74
2021/10/13 12:00:12;;;;;;;5.40;1.17;;;;;;;;;;5006014;28;20433;-74
2021/10/13 12:02:38;;;;;;;3.83;1.23;;;;;;;;;;5004729;28;20211;-73
2021/10/13 12:05:04;;;;;;;5.17;1.10;;;;;;;;;;5002046;28;20427;-74
2021/10/13 12:07:39;;;;;;;5.03;1.03;;;;;;;;;;5004994;28;20521;-74
2021/10/13 12:10:04;;;;;;;4.60;1.27;;;;;;;;;;5004339;28;20427;-73
2021/10/13 12:12:30;;;;;;;4.60;1.27;;;;;;;;;;5005444;28;20448;-74
2021/10/13 12:14:56;;;;;;;3.97;1.43;;;;;;;;;;5004877;28;20224;-74
2021/10/13 12:17:31;;;;;;;3.27;1.13;;;;;;;;;;5005654;28;20216;-74
2021/10/13 12:19:57;;;;;;;3.63;1.30;;;;;;;;;;5004798;28;20985;-75
2021/10/13 12:22:22;;;;;;;3.87;1.10;;;;;;;;;;5001340;28;20444;-74
2021/10/13 12:24:47;;;;;;;2.40;0.70;;;;;;;;;;5005347;28;20589;-74
2021/10/13 12:27:24;;;;;;;3.37;1.10;;;;;;;;;;5005081;28;20205;-75
2021/10/13 12:29:49;;;;;;;5.37;1.17;;;;;;;;;;5004545;28;20177;-74
2021/10/13 12:32:15;;;;;;;4.57;1.10;;;;;;;;;;5003326;28;20521;-74
2021/10/13 12:34:41;;;;;;;4.63;1.03;;;;;;;;;;5004448;28;20201;-74
2021/10/13 12:37:06;;;;;;;1.77;0.80;;;;;;;;;;5005845;28;20416;-74
2021/10/13 12:39:34;;;;;;;4.50;1.03;;;;;;;;;;5004131;28;20181;-74
2021/10/13 12:42:04;;;;;;;3.93;1.10;;;;;;;;;;5000468;28;21833;-74
2021/10/13 12:44:30;;;;;;;4.40;1.13;;;;;;;;;;5007272;28;20447;-74
2021/10/13 12:46:55;;;;;;;4.10;1.10;;;;;;;;;;5004166;28;20683;-74
2021/10/13 12:49:23;;;;;;;3.40;1.30;;;;;;;;;;5005748;28;20212;-75
2021/10/13 12:51:48;;;;;;;4.73;1.40;;;;;;;;;;4989269;28;20176;-75
2021/10/13 12:54:13;;;;;;;3.83;1.07;;;;;;;;;;5002399;28;20529;-75
2021/10/13 12:56:38;;;;;;;4.57;1.60;;;;;;;;;;5005752;28;20173;-75
2021/10/13 12:59:04;;;;;;;4.83;1.33;;;;;;;;;;5001929;28;20165;-75
2021/10/13 13:01:29;;;;;;;6.27;1.33;;;;;;;;;;5001347;28;20177;-75
2021/10/13 13:03:54;;;;;;;4.27;1.40;;;;;;;;;;4998140;28;20205;-74
2021/10/13 13:06:19;;;;;;;6.83;2.07;;;;;;;;;;5001841;28;20197;-75
2021/10/13 13:08:45;;;;;;;3.67;1.30;;;;;;;;;;5000266;28;22015;-74
2021/10/13 13:11:10;;;;;;;3.87;1.70;;;;;;;;;;4999274;28;20255;-74
2021/10/13 13:13:35;;;;;;;3.03;1.03;;;;;;;;;;5002409;28;20205;-74
2021/10/13 13:16:00;;;;;;;2.90;1.00;;;;;;;;;;5002797;28;20685;-74
2021/10/13 13:18:26;;;;;;;4.27;1.13;;;;;;;;;;5004503;28;20173;-74
2021/10/13 13:20:53;;;;;;;5.47;1.43;;;;;;;;;;4999452;28;20252;-74
2021/10/13 13:23:19;;;;;;;3.10;1.30;;;;;;;;;;4997457;28;20193;-74
2021/10/13 13:25:44;;;;;;;6.57;1.30;;;;;;;;;;4997706;28;20429;-74
2021/10/13 13:28:09;;;;;;;7.30;1.40;;;;;;;;;;5000454;28;20440;-74
2021/10/13 13:30:34;;;;;;;5.93;1.40;;;;;;;;;;4999791;28;20185;-74
2021/10/13 13:33:00;;;;;;;2.80;1.40;;;;;;;;;;4995018;28;20728;-75
2021/10/13 13:35:25;;;;;;;3.90;1.00;;;;;;;;;;5001872;28;20202;-74
2021/10/13 13:37:51;;;;;;;6.70;1.47;;;;;;;;;;5004178;28;20243;-75
2021/10/13 13:40:17;;;;;;;5.43;1.23;;;;;;;;;;5004190;28;20224;-74
2021/10/13 13:42:42;;;;;;;7.10;1.37;;;;;;;;;;4999115;28;20444;-75
2021/10/13 13:45:08;;;;;;;7.37;1.30;;;;;;;;;;5001784;28;20554;-74
2021/10/13 13:47:34;;;;;;;5.70;1.50;;;;;;;;;;4997964;28;20817;-74
2021/10/13 13:50:00;;;;;;;10.73;1.90;;;;;;;;;;4998314;28;20608;-74
2021/10/13 13:52:26;;;;;;;12.43;2.13;;;;;;;;;;5002236;28;20456;-74
2021/10/13 13:54:51;;;;;;;8.83;1.93;;;;;;;;;;5002154;28;20193;-74
2021/10/13 13:57:16;;;;;;;4.40;1.67;;;;;;;;;;5004780;28;20507;-74
2021/10/13 13:59:42;;;;;;;5.83;1.50;;;;;;;;;;5001012;28;20247;-74
2021/10/13 14:02:07;;;;;;;3.83;1.60;;;;;;;;;;4998310;28;20660;-74
2021/10/13 14:04:32;;;;;;;3.60;1.30;;;;;;;;;;5001911;28;20268;-74
2021/10/13 14:06:58;;;;;;;4.77;1.40;;;;;;;;;;5000671;28;21225;-74
2021/10/13 14:09:24;;;;;;;2.80;1.63;;;;;;;;;;5000630;28;20185;-74
2021/10/13 14:11:49;;;;;;;6.80;1.83;;;;;;;;;;4999298;28;20897;-73
2021/10/13 14:14:14;;;;;;;6.43;1.40;;;;;;;;;;4999344;28;20216;-74
2021/10/13 14:16:39;;;;;;;4.00;1.10;;;;;;;;;;5000917;28;20174;-73
2021/10/13 14:19:05;;;;;;;3.70;1.27;;;;;;;;;;5000492;28;20549;-73
2021/10/13 14:21:30;;;;;;;4.53;1.33;;;;;;;;;;5001744;28;20564;-73
2021/10/13 14:23:55;;;;;;;3.07;1.60;;;;;;;;;;5002325;28;20571;-74
2021/10/13 14:26:20;;;;;;;6.00;1.60;;;;;;;;;;4999268;28;20185;-74
2021/10/13 14:28:46;;;;;;;2.17;1.40;;;;;;;;;;5001504;28;20200;-75
2021/10/13 14:31:11;;;;;;;5.80;1.40;;;;;;;;;;4994870;28;20189;-74
2021/10/13 14:33:37;;;;;;;5.23;1.23;;;;;;;;;;4994949;28;20192;-74
2021/10/13 14:36:02;;;;;;;1.93;1.03;;;;;;;;;;5003560;28;20673;-74
2021/10/13 14:38:28;;;;;;;1.80;0.90;;;;;;;;;;5002414;28;20185;-74
2021/10/13 14:40:53;;;;;;;3.07;1.47;;;;;;;;;;5003072;28;20319;-74